createdAt,value
2018-10-07T00:00:03.302Z,11.70
2018-10-07T00:01:06.785Z,11.17
2018-10-07T00:02:10.175Z,9.80
2018-10-07T00:03:13.617Z,10.17
2018-10-07T00:04:17.068Z,11.10
2018-10-07T00:05:20.467Z,11.60
2018-10-07T00:06:23.965Z,13.67
2018-10-07T00:07:27.414Z,14.20
2018-10-07T00:08:30.798Z,12.17
2018-10-07T00:09:34.216Z,14.77
2018-10-07T00:10:37.645Z,14.63
2018-10-07T00:11:41.190Z,13.10
2018-10-07T00:12:45.198Z,12.77
2018-10-07T00:13:48.594Z,12.10
2018-10-07T00:14:52.033Z,10.27
2018-10-07T00:15:55.424Z,9.53
2018-10-07T00:16:58.840Z,9.43
2018-10-07T00:18:02.221Z,9.47
2018-10-07T00:19:05.679Z,10.93
2018-10-07T00:20:09.108Z,13.63
2018-10-07T00:21:12.557Z,11.27
2018-10-07T00:22:16.006Z,11.67
2018-10-07T00:23:19.434Z,13.23
2018-10-07T00:24:22.974Z,12.70
2018-10-07T00:25:26.395Z,12.10
2018-10-07T00:26:29.820Z,14.00
2018-10-07T00:27:33.288Z,13.07
2018-10-07T00:28:36.782Z,11.70
2018-10-07T00:29:40.216Z,13.50
2018-10-07T00:30:43.657Z,13.33
2018-10-07T00:31:52.338Z,11.10
2018-10-07T00:32:55.735Z,14.13
2018-10-07T00:33:59.179Z,11.77
2018-10-07T00:35:02.616Z,10.00
2018-10-07T00:36:06.277Z,11.10
2018-10-07T00:37:09.956Z,11.00
2018-10-07T00:38:13.390Z,18.63
2018-10-07T00:39:16.785Z,7.83
2018-10-07T00:40:20.230Z,22.23
2018-10-07T00:41:23.651Z,12.23
2018-10-07T00:42:27.051Z,13.17
2018-10-07T00:43:30.525Z,11.30
2018-10-07T00:44:33.975Z,9.83
2018-10-07T00:45:37.629Z,13.03
2018-10-07T00:46:41.107Z,9.20
2018-10-07T00:47:44.568Z,12.80
2018-10-07T00:48:48.096Z,16.73
2018-10-07T00:49:51.532Z,13.37
2018-10-07T00:50:54.970Z,11.63
2018-10-07T00:51:58.387Z,11.63
2018-10-07T00:53:01.869Z,15.00
2018-10-07T00:54:05.360Z,13.30
2018-10-07T00:55:08.823Z,9.90
2018-10-07T00:56:12.453Z,10.43
2018-10-07T00:57:15.913Z,9.70
2018-10-07T00:58:19.350Z,9.03
2018-10-07T00:59:22.970Z,11.73
2018-10-07T01:00:26.402Z,10.40
2018-10-07T01:01:29.859Z,10.60
2018-10-07T01:02:33.285Z,9.83
2018-10-07T01:03:36.769Z,9.77
2018-10-07T01:04:40.222Z,10.63
2018-10-07T01:05:43.780Z,9.67
2018-10-07T01:06:47.310Z,7.90
2018-10-07T01:07:50.723Z,13.27
2018-10-07T01:08:54.180Z,9.03
2018-10-07T01:09:57.597Z,9.17
2018-10-07T01:11:01.000Z,11.43
2018-10-07T01:12:04.439Z,8.83
2018-10-07T01:13:07.933Z,8.70
2018-10-07T01:14:11.837Z,9.67
2018-10-07T01:15:15.250Z,9.53
2018-10-07T01:16:18.732Z,8.57
2018-10-07T01:17:22.257Z,14.40
2018-10-07T01:18:25.713Z,8.93
2018-10-07T01:19:29.121Z,8.80
2018-10-07T01:20:32.558Z,9.67
2018-10-07T01:21:36.147Z,7.33
2018-10-07T01:22:39.571Z,8.60
2018-10-07T01:23:43.040Z,15.33
2018-10-07T01:24:46.622Z,9.37
2018-10-07T01:25:50.201Z,11.47
2018-10-07T01:26:53.630Z,9.93
2018-10-07T01:27:57.051Z,7.80
2018-10-07T01:29:00.485Z,8.10
2018-10-07T01:30:03.982Z,10.07
2018-10-07T01:31:07.419Z,9.60
2018-10-07T01:32:10.835Z,9.53
2018-10-07T01:33:14.268Z,10.60
2018-10-07T01:34:17.742Z,10.33
2018-10-07T01:35:21.190Z,9.00
2018-10-07T01:36:24.625Z,7.43
2018-10-07T01:37:28.066Z,8.80
2018-10-07T01:38:31.446Z,7.37
2018-10-07T01:39:34.882Z,8.17
2018-10-07T01:40:38.628Z,9.37
2018-10-07T01:41:42.065Z,7.13
2018-10-07T01:42:45.617Z,8.70
2018-10-07T01:43:49.059Z,8.73
2018-10-07T01:44:52.467Z,7.33
2018-10-07T01:45:55.948Z,12.30
2018-10-07T01:46:59.381Z,10.67
2018-10-07T01:48:02.820Z,7.83
2018-10-07T01:49:06.294Z,13.13
2018-10-07T01:50:09.749Z,8.47
2018-10-07T01:51:13.186Z,10.00
2018-10-07T01:52:16.591Z,9.00
2018-10-07T01:53:20.093Z,11.23
2018-10-07T01:54:23.558Z,8.43
2018-10-07T01:55:26.973Z,7.63
2018-10-07T01:56:30.398Z,7.00
2018-10-07T01:57:33.852Z,6.63
2018-10-07T01:58:37.301Z,10.17
2018-10-07T01:59:41.033Z,7.30
2018-10-07T02:00:44.438Z,7.23
2018-10-07T02:01:47.839Z,8.57
2018-10-07T02:02:51.295Z,7.67
2018-10-07T02:03:54.740Z,7.13
2018-10-07T02:04:58.239Z,7.10
2018-10-07T02:06:01.678Z,13.13
2018-10-07T02:07:05.110Z,6.83
2018-10-07T02:08:08.611Z,9.57
2018-10-07T02:09:12.125Z,8.33
2018-10-07T02:10:15.519Z,7.43
2018-10-07T02:11:18.979Z,6.60
2018-10-07T02:12:22.593Z,7.00
2018-10-07T02:13:26.032Z,8.03
2018-10-07T02:14:29.457Z,8.47
2018-10-07T02:15:32.935Z,6.97
2018-10-07T02:16:36.356Z,7.17
2018-10-07T02:17:39.769Z,7.77
2018-10-07T02:18:43.198Z,7.67
2018-10-07T02:19:46.605Z,7.33
2018-10-07T02:20:50.102Z,6.37
2018-10-07T02:21:53.487Z,6.93
2018-10-07T02:22:56.903Z,6.40
2018-10-07T02:24:00.329Z,7.50
2018-10-07T02:25:03.774Z,7.20
2018-10-07T02:26:07.275Z,6.40
2018-10-07T02:27:10.792Z,10.60
2018-10-07T02:28:14.240Z,10.77
2018-10-07T02:29:17.772Z,13.30
2018-10-07T02:30:21.205Z,5.93
2018-10-07T02:31:24.601Z,5.07
2018-10-07T02:32:28.018Z,7.87
2018-10-07T02:33:31.429Z,7.43
2018-10-07T02:34:35.224Z,12.77
2018-10-07T02:35:38.667Z,5.97
2018-10-07T02:36:42.105Z,5.90
2018-10-07T02:37:45.546Z,6.07
2018-10-07T02:38:48.980Z,6.77
2018-10-07T02:39:52.457Z,9.30
2018-10-07T02:40:55.874Z,6.13
2018-10-07T02:41:59.290Z,7.83
2018-10-07T02:43:02.715Z,6.03
2018-10-07T02:44:06.190Z,7.23
2018-10-07T02:45:09.690Z,7.77
2018-10-07T02:46:13.137Z,5.90
2018-10-07T02:47:16.566Z,6.17
2018-10-07T02:48:20.001Z,8.73
2018-10-07T02:49:23.445Z,6.53
2018-10-07T02:50:26.866Z,5.80
2018-10-07T02:51:30.419Z,6.17
2018-10-07T02:52:39.031Z,7.33
2018-10-07T02:53:42.495Z,7.23
2018-10-07T02:54:46.055Z,12.97
2018-10-07T02:55:49.565Z,6.37
2018-10-07T02:56:53.128Z,6.67
2018-10-07T02:57:57.813Z,4.73
2018-10-07T02:59:01.279Z,12.83
2018-10-07T03:00:04.796Z,5.27
2018-10-07T03:01:08.358Z,6.70
2018-10-07T03:02:11.797Z,6.30
2018-10-07T03:03:15.228Z,7.93
2018-10-07T03:04:18.654Z,5.50
2018-10-07T03:05:22.119Z,5.27
2018-10-07T03:06:25.563Z,7.00
2018-10-07T03:07:28.974Z,6.70
2018-10-07T03:08:32.432Z,7.40
2018-10-07T03:09:35.943Z,9.13
2018-10-07T03:10:39.424Z,9.13
2018-10-07T03:11:42.865Z,6.63
2018-10-07T03:12:46.289Z,7.63
2018-10-07T03:13:49.716Z,6.43
2018-10-07T03:14:53.152Z,7.13
2018-10-07T03:15:56.573Z,4.53
2018-10-07T03:16:59.993Z,7.60
2018-10-07T03:18:03.396Z,8.53
2018-10-07T03:19:06.891Z,6.07
2018-10-07T03:20:10.287Z,7.50
2018-10-07T03:21:13.752Z,8.00
2018-10-07T03:22:17.214Z,6.10
2018-10-07T03:23:20.630Z,6.17
2018-10-07T03:24:24.054Z,6.63
2018-10-07T03:25:27.490Z,7.40
2018-10-07T03:26:31.013Z,4.97
2018-10-07T03:27:34.555Z,4.73
2018-10-07T03:28:38.022Z,5.87
2018-10-07T03:29:41.463Z,10.70
2018-10-07T03:30:44.854Z,9.57
2018-10-07T03:31:48.278Z,8.70
2018-10-07T03:32:51.762Z,6.93
2018-10-07T03:33:55.381Z,5.87
2018-10-07T03:34:58.787Z,5.93
2018-10-07T03:36:02.206Z,6.83
2018-10-07T03:37:05.675Z,5.60
2018-10-07T03:38:09.198Z,6.27
2018-10-07T03:39:12.590Z,5.70
2018-10-07T03:40:16.018Z,5.30
2018-10-07T03:41:19.472Z,6.20
2018-10-07T03:42:22.904Z,9.80
2018-10-07T03:43:26.444Z,6.07
2018-10-07T03:44:29.844Z,8.50
2018-10-07T03:45:33.239Z,4.93
2018-10-07T03:46:36.650Z,6.57
2018-10-07T03:47:40.175Z,10.27
2018-10-07T03:48:43.621Z,10.70
2018-10-07T03:49:47.060Z,7.57
2018-10-07T03:50:50.665Z,6.80
2018-10-07T03:51:54.087Z,10.90
2018-10-07T03:52:57.521Z,6.87
2018-10-07T03:54:00.962Z,6.40
2018-10-07T03:55:04.503Z,6.47
2018-10-07T03:56:08.040Z,6.43
2018-10-07T03:57:11.496Z,5.90
2018-10-07T03:58:14.996Z,6.77
2018-10-07T03:59:18.458Z,7.37
2018-10-07T04:00:21.890Z,5.63
2018-10-07T04:01:25.437Z,9.83
2018-10-07T04:02:30.393Z,5.10
2018-10-07T04:03:33.863Z,7.93
2018-10-07T04:04:37.649Z,6.37
2018-10-07T04:05:41.066Z,7.47
2018-10-07T04:06:44.478Z,5.27
2018-10-07T04:07:48.005Z,6.13
2018-10-07T04:08:51.544Z,4.90
2018-10-07T04:09:55.006Z,11.47
2018-10-07T04:10:58.433Z,5.43
2018-10-07T04:12:01.865Z,5.20
2018-10-07T04:13:05.300Z,9.13
2018-10-07T04:14:08.939Z,4.80
2018-10-07T04:15:12.426Z,4.80
2018-10-07T04:16:15.831Z,4.83
2018-10-07T04:17:19.240Z,15.83
2018-10-07T04:18:22.640Z,6.00
2018-10-07T04:19:26.042Z,4.23
2018-10-07T04:20:29.486Z,9.43
2018-10-07T04:21:33.090Z,5.00
2018-10-07T04:22:36.494Z,4.17
2018-10-07T04:23:39.958Z,5.27
2018-10-07T04:24:43.440Z,8.23
2018-10-07T04:25:46.871Z,5.50
2018-10-07T04:26:50.359Z,10.30
2018-10-07T04:27:53.843Z,5.50
2018-10-07T04:28:57.332Z,6.30
2018-10-07T04:30:00.751Z,6.50
2018-10-07T04:31:04.151Z,5.10
2018-10-07T04:32:07.588Z,6.13
2018-10-07T04:33:10.963Z,7.80
2018-10-07T04:34:14.424Z,5.13
2018-10-07T04:35:17.828Z,5.60
2018-10-07T04:36:21.309Z,5.40
2018-10-07T04:37:24.737Z,4.80
2018-10-07T04:38:28.165Z,4.70
2018-10-07T04:39:31.578Z,4.80
2018-10-07T04:40:35.021Z,5.30
2018-10-07T04:41:38.522Z,4.77
2018-10-07T04:42:41.950Z,6.60
2018-10-07T04:43:45.406Z,6.30
2018-10-07T04:44:48.886Z,6.80
2018-10-07T04:45:52.298Z,6.00
2018-10-07T04:46:55.704Z,4.83
2018-10-07T04:47:59.102Z,4.93
2018-10-07T04:49:02.809Z,7.93
2018-10-07T04:50:07.166Z,6.87
2018-10-07T04:51:10.628Z,8.43
2018-10-07T04:52:14.092Z,5.70
2018-10-07T04:53:17.503Z,4.20
2018-10-07T04:54:21.182Z,4.07
2018-10-07T04:55:24.613Z,5.27
2018-10-07T04:56:28.066Z,4.73
2018-10-07T04:57:31.502Z,5.47
2018-10-07T04:58:34.896Z,5.40
2018-10-07T04:59:38.315Z,4.93
2018-10-07T05:00:41.809Z,7.50
2018-10-07T05:01:45.214Z,4.40
2018-10-07T05:02:48.651Z,5.73
2018-10-07T05:03:52.427Z,4.30
2018-10-07T05:04:56.633Z,6.40
2018-10-07T05:06:00.181Z,5.67
2018-10-07T05:07:03.730Z,5.77
2018-10-07T05:08:07.893Z,7.23
2018-10-07T05:09:11.993Z,4.90
2018-10-07T05:10:26.304Z,6.03
2018-10-07T05:11:30.087Z,6.07
2018-10-07T05:12:33.618Z,10.77
2018-10-07T05:13:47.357Z,7.20
2018-10-07T05:14:50.897Z,8.30
2018-10-07T05:15:55.965Z,5.53
2018-10-07T05:16:59.479Z,5.30
2018-10-07T05:18:02.995Z,5.13
2018-10-07T05:19:07.246Z,4.17
2018-10-07T05:20:10.698Z,5.33
2018-10-07T05:21:14.198Z,4.60
2018-10-07T05:22:17.603Z,4.67
2018-10-07T05:23:21.214Z,4.27
2018-10-07T05:24:24.666Z,4.23
2018-10-07T05:25:28.178Z,5.30
2018-10-07T05:26:31.659Z,6.00
2018-10-07T05:27:35.241Z,4.13
2018-10-07T05:28:38.822Z,5.47
2018-10-07T05:29:42.302Z,3.57
2018-10-07T05:30:45.791Z,6.47
2018-10-07T05:31:49.324Z,5.67
2018-10-07T05:32:52.769Z,5.67
2018-10-07T05:33:56.195Z,7.30
2018-10-07T05:34:59.786Z,9.13
2018-10-07T05:36:03.232Z,14.87
2018-10-07T05:37:06.733Z,8.47
2018-10-07T05:38:10.382Z,6.20
2018-10-07T05:39:13.964Z,10.57
2018-10-07T05:40:17.416Z,6.17
2018-10-07T05:41:20.847Z,7.00
2018-10-07T05:42:24.504Z,5.83
2018-10-07T05:43:27.972Z,5.10
2018-10-07T05:44:31.489Z,9.23
2018-10-07T05:45:34.966Z,3.20
2018-10-07T05:46:38.378Z,5.37
2018-10-07T05:47:41.804Z,7.50
2018-10-07T05:48:45.463Z,3.40
2018-10-07T05:49:49.004Z,5.77
2018-10-07T05:50:52.461Z,4.27
2018-10-07T05:51:55.882Z,4.23
2018-10-07T05:52:59.331Z,14.83
2018-10-07T05:54:02.748Z,6.00
2018-10-07T05:55:06.313Z,4.60
2018-10-07T05:56:09.774Z,3.57
2018-10-07T05:57:13.276Z,6.67
2018-10-07T05:58:16.753Z,4.50
2018-10-07T05:59:20.266Z,4.43
2018-10-07T06:00:23.779Z,7.97
2018-10-07T06:01:36.076Z,5.73
2018-10-07T06:02:41.624Z,6.40
2018-10-07T06:04:51.981Z,6.40
2018-10-07T06:05:55.398Z,8.20
2018-10-07T06:07:02.287Z,3.90
2018-10-07T06:08:05.894Z,8.00
2018-10-07T06:09:19.586Z,6.60
2018-10-07T06:10:23.044Z,7.83
2018-10-07T06:11:26.567Z,5.43
2018-10-07T06:12:30.032Z,4.73
2018-10-07T06:13:33.549Z,11.77
2018-10-07T06:14:48.243Z,19.90
2018-10-07T06:15:51.693Z,17.63
2018-10-07T06:16:55.129Z,3.77
2018-10-07T06:17:58.847Z,4.50
2018-10-07T06:19:02.408Z,7.73
2018-10-07T06:20:05.961Z,5.50
2018-10-07T06:21:09.549Z,6.20
2018-10-07T06:22:13.072Z,4.47
2018-10-07T06:23:16.548Z,4.07
2018-10-07T06:24:20.070Z,6.17
2018-10-07T06:25:23.549Z,7.10
2018-10-07T06:26:26.988Z,3.87
2018-10-07T06:27:30.545Z,3.73
2018-10-07T06:28:33.966Z,3.70
2018-10-07T06:29:37.460Z,5.40
2018-10-07T06:30:40.937Z,6.17
2018-10-07T06:31:44.879Z,3.97
2018-10-07T06:32:48.351Z,4.60
2018-10-07T06:33:51.858Z,3.50
2018-10-07T06:34:55.350Z,5.37
2018-10-07T06:35:58.804Z,8.20
2018-10-07T06:37:02.328Z,6.33
2018-10-07T06:38:05.784Z,4.00
2018-10-07T06:39:09.258Z,3.53
2018-10-07T06:40:12.841Z,3.97
2018-10-07T06:41:16.318Z,5.20
2018-10-07T06:42:19.813Z,4.10
2018-10-07T06:43:23.467Z,3.30
2018-10-07T06:44:26.955Z,3.40
2018-10-07T06:45:30.465Z,6.80
2018-10-07T06:46:33.872Z,4.90
2018-10-07T06:47:37.415Z,4.93
2018-10-07T06:48:40.872Z,5.93
2018-10-07T06:49:44.287Z,4.30
2018-10-07T06:50:47.768Z,4.70
2018-10-07T06:51:51.635Z,5.00
2018-10-07T06:52:55.060Z,4.50
2018-10-07T06:53:58.477Z,3.23
2018-10-07T06:55:01.974Z,3.77
2018-10-07T06:56:05.478Z,5.20
2018-10-07T06:57:09.021Z,3.20
2018-10-07T06:58:12.481Z,7.30
2018-10-07T06:59:15.925Z,5.80
2018-10-07T07:00:19.486Z,2.60
2018-10-07T07:01:22.974Z,4.30
2018-10-07T07:02:26.500Z,2.90
2018-10-07T07:03:29.929Z,6.13
2018-10-07T07:04:33.365Z,4.13
2018-10-07T07:05:36.878Z,5.70
2018-10-07T07:06:41.763Z,6.57
2018-10-07T07:07:45.469Z,3.90
2018-10-07T07:08:48.938Z,3.03
2018-10-07T07:09:52.723Z,3.47
2018-10-07T07:10:56.139Z,3.60
2018-10-07T07:11:59.711Z,4.87
2018-10-07T07:13:03.314Z,5.63
2018-10-07T07:14:06.993Z,11.53
2018-10-07T07:15:10.583Z,6.10
2018-10-07T07:16:14.074Z,5.67
2018-10-07T07:17:17.485Z,6.30
2018-10-07T07:18:21.362Z,5.90
2018-10-07T07:19:25.163Z,6.53
2018-10-07T07:20:28.616Z,10.30
2018-10-07T07:21:32.696Z,6.77
2018-10-07T07:22:36.945Z,5.63
2018-10-07T07:23:40.763Z,5.87
2018-10-07T07:24:44.647Z,5.80
2018-10-07T07:25:48.163Z,8.73
2018-10-07T07:26:51.667Z,4.30
2018-10-07T07:27:55.083Z,8.17
2018-10-07T07:28:58.506Z,4.87
2018-10-07T07:30:01.935Z,15.13
2018-10-07T07:31:05.364Z,12.20
2018-10-07T07:32:08.803Z,8.93
2018-10-07T07:33:12.302Z,9.03
2018-10-07T07:34:15.722Z,13.57
2018-10-07T07:35:19.229Z,9.63
2018-10-07T07:36:22.673Z,10.67
2018-10-07T07:37:26.113Z,8.80
2018-10-07T07:38:29.611Z,16.30
2018-10-07T07:39:33.125Z,15.63
2018-10-07T07:40:37.561Z,15.17
2018-10-07T07:41:41.104Z,13.70
2018-10-07T07:42:49.198Z,16.30
2018-10-07T07:43:53.985Z,14.50
2018-10-07T07:44:57.918Z,16.83
2018-10-07T07:46:02.506Z,15.13
2018-10-07T07:47:06.906Z,16.60
2018-10-07T07:48:11.156Z,13.40
2018-10-07T07:49:15.581Z,15.13
2018-10-07T07:50:20.631Z,15.33
2018-10-07T07:51:24.108Z,15.43
2018-10-07T07:52:28.070Z,15.67
2018-10-07T07:53:32.136Z,19.10
2018-10-07T07:54:35.719Z,13.70
2018-10-07T07:55:39.531Z,13.93
2018-10-07T07:56:44.019Z,14.50
2018-10-07T07:57:47.605Z,16.70
2018-10-07T07:58:51.193Z,15.20
2018-10-07T07:59:55.071Z,15.37
2018-10-07T08:00:59.872Z,15.93
2018-10-07T08:02:03.770Z,14.83
2018-10-07T08:03:07.388Z,14.07
2018-10-07T08:04:10.857Z,15.03
2018-10-07T08:05:14.344Z,17.73
2018-10-07T08:06:17.807Z,15.40
2018-10-07T08:07:21.262Z,22.33
2018-10-07T08:08:24.787Z,19.07
2018-10-07T08:09:28.308Z,14.33
2018-10-07T08:10:31.780Z,10.80
2018-10-07T08:11:35.224Z,12.43
2018-10-07T08:12:38.803Z,21.83
2018-10-07T08:13:42.291Z,16.20
2018-10-07T08:14:45.719Z,21.40
2018-10-07T08:15:49.247Z,15.30
2018-10-07T08:16:52.773Z,19.57
2018-10-07T08:17:56.309Z,31.97
2018-10-07T08:18:59.820Z,17.20
2018-10-07T08:20:03.365Z,17.17
2018-10-07T08:21:07.049Z,21.10
2018-10-07T08:22:10.486Z,23.13
2018-10-07T08:23:13.985Z,17.63
2018-10-07T08:24:17.407Z,19.37
2018-10-07T08:25:20.870Z,18.73
2018-10-07T08:26:24.441Z,16.90
2018-10-07T08:27:27.863Z,18.37
2018-10-07T08:28:31.332Z,15.57
2018-10-07T08:29:34.839Z,11.47
2018-10-07T08:30:38.258Z,14.40
2018-10-07T08:31:41.816Z,11.00
2018-10-07T08:32:45.269Z,13.40
2018-10-07T08:33:49.184Z,12.70
2018-10-07T08:34:52.667Z,12.20
2018-10-07T08:35:56.141Z,9.60
2018-10-07T08:36:59.563Z,11.00
2018-10-07T08:38:03.061Z,13.27
2018-10-07T08:39:08.705Z,13.77
2018-10-07T08:40:12.185Z,11.20
2018-10-07T08:41:15.626Z,9.50
2018-10-07T08:42:19.056Z,11.23
2018-10-07T08:43:22.630Z,9.67
2018-10-07T08:44:26.056Z,7.70
2018-10-07T08:45:29.525Z,20.30
2018-10-07T08:46:33.010Z,10.67
2018-10-07T08:47:36.444Z,10.90
2018-10-07T08:48:39.895Z,10.50
2018-10-07T08:49:43.389Z,8.63
2018-10-07T08:50:46.868Z,7.90
2018-10-07T08:51:50.484Z,10.90
2018-10-07T08:52:54.016Z,8.20
2018-10-07T08:53:57.492Z,8.20
2018-10-07T08:55:01.032Z,7.87
2018-10-07T08:56:04.527Z,7.40
2018-10-07T08:57:08.622Z,10.40
2018-10-07T08:58:12.033Z,8.37
2018-10-07T08:59:15.745Z,16.20
2018-10-07T09:00:19.193Z,6.30
2018-10-07T09:01:22.701Z,8.03
2018-10-07T09:02:26.192Z,7.17
2018-10-07T09:03:29.654Z,8.43
2018-10-07T09:04:33.157Z,7.13
2018-10-07T09:05:36.617Z,9.93
2018-10-07T09:06:40.065Z,6.43
2018-10-07T09:07:43.541Z,13.07
2018-10-07T09:08:47.019Z,11.20
2018-10-07T09:09:50.509Z,17.80
2018-10-07T09:10:53.982Z,13.80
2018-10-07T09:11:57.454Z,23.07
2018-10-07T09:13:00.889Z,12.27
2018-10-07T09:14:04.346Z,16.50
2018-10-07T09:15:08.080Z,33.70
2018-10-07T09:16:11.648Z,10.87
2018-10-07T09:17:15.150Z,14.73
2018-10-07T09:18:18.735Z,14.10
2018-10-07T09:19:22.177Z,10.30
2018-10-07T09:20:25.626Z,11.73
2018-10-07T09:21:29.071Z,8.73
2018-10-07T09:22:32.541Z,13.03
2018-10-07T09:23:36.051Z,11.20
2018-10-07T09:24:39.480Z,14.47
2018-10-07T09:25:42.924Z,8.53
2018-10-07T09:26:46.368Z,10.33
2018-10-07T09:27:51.016Z,8.23
2018-10-07T09:28:56.136Z,11.10
2018-10-07T09:29:59.838Z,8.67
2018-10-07T09:31:03.295Z,10.03
2018-10-07T09:32:06.806Z,11.00
2018-10-07T09:33:10.455Z,6.97
2018-10-07T09:34:14.365Z,8.70
2018-10-07T09:35:29.599Z,16.17
2018-10-07T09:36:33.090Z,7.23
2018-10-07T09:37:36.506Z,8.27
2018-10-07T09:38:39.973Z,7.10
2018-10-07T09:39:43.584Z,7.40
2018-10-07T09:40:47.113Z,5.80
2018-10-07T09:41:50.806Z,8.60
2018-10-07T09:42:54.252Z,6.53
2018-10-07T09:43:57.678Z,5.17
2018-10-07T09:45:01.160Z,8.97
2018-10-07T09:46:04.658Z,7.07
2018-10-07T09:47:08.228Z,7.83
2018-10-07T09:48:11.802Z,8.97
2018-10-07T09:49:15.435Z,7.00
2018-10-07T09:50:18.928Z,13.50
2018-10-07T09:51:22.372Z,6.17
2018-10-07T09:52:25.957Z,7.80
2018-10-07T09:53:29.318Z,8.37
2018-10-07T09:54:32.793Z,6.20
2018-10-07T09:55:36.328Z,6.03
2018-10-07T09:56:39.800Z,4.50
2018-10-07T09:57:43.222Z,6.27
2018-10-07T09:58:46.694Z,6.00
2018-10-07T09:59:50.192Z,7.50
2018-10-07T10:00:53.816Z,5.70
2018-10-07T10:01:57.294Z,5.70
2018-10-07T10:03:00.733Z,8.00
2018-10-07T10:04:04.215Z,6.43
2018-10-07T10:05:07.729Z,6.40
2018-10-07T10:06:11.164Z,6.03
2018-10-07T10:07:14.774Z,6.10
2018-10-07T10:08:18.151Z,6.17
2018-10-07T10:09:21.612Z,6.90
2018-10-07T10:10:25.011Z,6.93
2018-10-07T10:11:28.470Z,8.23
2018-10-07T10:12:31.923Z,7.97
2018-10-07T10:13:35.577Z,6.90
2018-10-07T10:14:39.007Z,10.57
2018-10-07T10:15:42.478Z,4.00
2018-10-07T10:16:50.613Z,4.47
2018-10-07T10:19:00.831Z,5.50
2018-10-07T10:20:07.622Z,5.00
2018-10-07T10:21:47.038Z,5.87
2018-10-07T10:23:25.873Z,7.23
2018-10-07T10:24:43.127Z,6.13
2018-10-07T10:27:22.669Z,5.17
2018-10-07T10:28:33.555Z,5.40
2018-10-07T10:29:41.722Z,5.33
2018-10-07T10:31:20.338Z,5.10
2018-10-07T10:32:33.288Z,5.60
2018-10-07T10:33:41.161Z,8.30
2018-10-07T10:37:08.530Z,5.43
2018-10-07T10:38:18.852Z,4.77
2018-10-07T10:39:28.718Z,5.80
2018-10-07T10:40:38.635Z,5.77
2018-10-07T10:42:55.025Z,4.53
2018-10-07T10:44:04.207Z,4.17
2018-10-07T10:45:08.099Z,7.10
2018-10-07T10:46:15.515Z,3.80
2018-10-07T10:47:36.955Z,4.07
2018-10-07T10:49:53.259Z,4.03
2018-10-07T10:51:35.075Z,5.47
2018-10-07T10:53:19.281Z,3.67
2018-10-07T10:54:42.950Z,7.63
2018-10-07T10:56:25.298Z,3.90
2018-10-07T10:57:35.695Z,3.80
2018-10-07T10:58:46.091Z,3.50
2018-10-07T11:00:22.521Z,3.20
2018-10-07T11:02:41.569Z,6.70
2018-10-07T11:03:54.757Z,4.20
2018-10-07T11:05:10.565Z,3.57
2018-10-07T11:06:21.854Z,3.73
2018-10-07T11:08:30.876Z,5.27
2018-10-07T11:09:52.537Z,4.70
2018-10-07T11:11:08.566Z,4.03
2018-10-07T11:12:48.779Z,2.70
2018-10-07T11:13:58.850Z,3.73
2018-10-07T11:15:09.688Z,3.80
2018-10-07T11:19:28.647Z,9.40
2018-10-07T11:20:48.506Z,20.50
2018-10-07T11:21:57.192Z,11.10
2018-10-07T11:23:13.331Z,20.07
2018-10-07T11:24:20.934Z,14.23
2018-10-07T11:27:52.601Z,8.57
2018-10-07T11:29:05.956Z,3.97
2018-10-07T11:30:21.989Z,18.10
2018-10-07T11:31:31.932Z,4.20
2018-10-07T11:32:46.695Z,10.43
2018-10-07T11:35:02.705Z,12.43
2018-10-07T11:38:18.746Z,5.37
2018-10-07T11:39:33.703Z,3.50
2018-10-07T11:40:45.844Z,4.03
2018-10-07T11:42:03.629Z,6.73
2018-10-07T11:43:17.165Z,2.97
2018-10-07T11:44:57.555Z,6.57
2018-10-07T11:50:34.740Z,14.60
2018-10-07T11:51:47.422Z,70.00
2018-10-07T11:53:02.210Z,89.40
2018-10-07T11:54:10.914Z,108.47
2018-10-07T11:55:14.487Z,110.53
2018-10-07T11:56:18.110Z,105.27
2018-10-07T11:57:21.772Z,110.83
2018-10-07T11:58:25.266Z,105.87
2018-10-07T11:59:28.749Z,104.87
2018-10-07T12:00:32.236Z,109.40
2018-10-07T12:01:35.921Z,106.03
2018-10-07T12:02:39.422Z,111.23
2018-10-07T12:03:42.834Z,105.77
2018-10-07T12:04:46.334Z,105.30
2018-10-07T12:05:49.821Z,97.90
2018-10-07T12:06:53.380Z,84.03
2018-10-07T12:07:56.925Z,80.63
2018-10-07T12:09:00.405Z,80.63
2018-10-07T12:10:04.037Z,78.60
2018-10-07T12:11:07.843Z,60.77
2018-10-07T12:12:11.288Z,78.30
2018-10-07T12:13:14.988Z,66.97
2018-10-07T12:14:18.928Z,65.03
2018-10-07T12:15:22.679Z,66.70
2018-10-07T12:16:26.200Z,69.37
2018-10-07T12:17:30.280Z,62.33
2018-10-07T12:18:33.909Z,67.47
2018-10-07T12:19:37.543Z,60.97
2018-10-07T12:20:40.992Z,50.83
2018-10-07T12:21:44.474Z,58.53
2018-10-07T12:22:47.988Z,52.00
2018-10-07T12:23:51.598Z,50.83
2018-10-07T12:24:55.130Z,50.73
2018-10-07T12:25:58.616Z,44.50
2018-10-07T12:27:02.144Z,36.03
2018-10-07T12:28:06.000Z,34.47
2018-10-07T12:29:09.448Z,30.10
2018-10-07T12:30:12.933Z,29.30
2018-10-07T12:31:16.404Z,30.27
2018-10-07T12:32:20.106Z,25.40
2018-10-07T12:33:24.951Z,24.23
2018-10-07T12:34:28.407Z,29.37
2018-10-07T12:35:31.922Z,32.27
2018-10-07T12:36:35.483Z,25.10
2018-10-07T12:37:38.986Z,24.97
2018-10-07T12:38:42.492Z,25.50
2018-10-07T12:39:46.070Z,22.23
2018-10-07T12:40:49.587Z,23.10
2018-10-07T12:41:53.192Z,23.10
2018-10-07T12:42:56.651Z,22.17
2018-10-07T12:44:00.239Z,20.57
2018-10-07T12:45:03.740Z,20.47
2018-10-07T12:46:07.225Z,20.67
2018-10-07T12:47:10.819Z,19.93
2018-10-07T12:48:14.712Z,20.33
2018-10-07T12:49:18.222Z,20.93
2018-10-07T12:50:22.035Z,18.30
2018-10-07T12:51:26.072Z,17.37
2018-10-07T12:52:29.536Z,22.20
2018-10-07T12:53:32.993Z,17.13
2018-10-07T12:54:36.552Z,19.40
2018-10-07T12:55:39.881Z,16.03
2018-10-07T12:56:43.336Z,18.00
2018-10-07T12:57:46.781Z,17.03
2018-10-07T12:58:50.232Z,16.27
2018-10-07T12:59:53.702Z,18.30
2018-10-07T13:00:57.117Z,19.80
2018-10-07T13:02:00.584Z,14.43
2018-10-07T13:03:04.069Z,13.10
2018-10-07T13:04:07.508Z,13.23
2018-10-07T13:05:10.957Z,16.10
2018-10-07T13:06:14.428Z,20.07
2018-10-07T13:07:17.894Z,15.03
2018-10-07T13:08:21.537Z,16.83
2018-10-07T13:09:25.025Z,14.40
2018-10-07T13:10:28.459Z,12.80
2018-10-07T13:11:31.922Z,12.00
2018-10-07T13:12:35.395Z,12.50
2018-10-07T13:13:38.852Z,13.40
2018-10-07T13:14:42.289Z,10.37
2018-10-07T13:15:45.718Z,14.00
2018-10-07T13:16:49.216Z,15.27
2018-10-07T13:17:52.782Z,10.70
2018-10-07T13:18:56.275Z,14.30
2018-10-07T13:20:00.020Z,14.40
2018-10-07T13:21:03.494Z,13.10
2018-10-07T13:22:06.950Z,9.30
2018-10-07T13:23:10.373Z,14.10
2018-10-07T13:24:13.824Z,13.63
2018-10-07T13:25:17.214Z,16.97
2018-10-07T13:26:20.713Z,13.27
2018-10-07T13:27:24.186Z,11.90
2018-10-07T13:28:27.626Z,12.23
2018-10-07T13:29:31.134Z,9.87
2018-10-07T13:30:34.573Z,10.00
2018-10-07T13:31:38.055Z,7.90
2018-10-07T13:32:41.559Z,21.07
2018-10-07T13:33:45.082Z,12.13
2018-10-07T13:34:48.489Z,14.93
2018-10-07T13:35:51.987Z,8.97
2018-10-07T13:36:55.478Z,12.60
2018-10-07T13:37:58.896Z,11.87
2018-10-07T13:39:02.359Z,15.77
2018-10-07T13:40:06.056Z,11.27
2018-10-07T13:41:09.489Z,13.00
2018-10-07T13:42:12.958Z,9.33
2018-10-07T13:43:16.384Z,10.90
2018-10-07T13:44:19.982Z,12.57
2018-10-07T13:45:23.456Z,15.20
2018-10-07T13:46:26.897Z,12.10
2018-10-07T13:47:30.309Z,8.53
2018-10-07T13:48:33.726Z,8.40
2018-10-07T13:49:37.138Z,11.93
2018-10-07T13:50:40.648Z,7.60
2018-10-07T13:51:44.110Z,11.50
2018-10-07T13:52:47.523Z,7.80
2018-10-07T13:53:50.973Z,10.20
2018-10-07T13:54:54.494Z,8.70
2018-10-07T13:55:57.969Z,17.00
2018-10-07T13:57:01.448Z,13.33
2018-10-07T13:58:04.938Z,10.77
2018-10-07T13:59:08.405Z,7.53
2018-10-07T14:00:11.792Z,10.00
2018-10-07T14:01:15.246Z,9.70
2018-10-07T14:02:18.689Z,7.83
2018-10-07T14:03:22.292Z,15.10
2018-10-07T14:04:25.918Z,8.10
2018-10-07T14:05:29.444Z,9.57
2018-10-07T14:06:32.961Z,8.20
2018-10-07T14:07:36.448Z,8.70
2018-10-07T14:08:40.075Z,10.43
2018-10-07T14:09:43.700Z,11.00
2018-10-07T14:10:47.138Z,5.83
2018-10-07T14:11:50.732Z,5.67
2018-10-07T14:12:54.252Z,7.33
2018-10-07T14:13:57.692Z,8.90
2018-10-07T14:15:01.125Z,10.73
2018-10-07T14:16:04.595Z,9.73
2018-10-07T14:17:08.028Z,10.60
2018-10-07T14:18:11.453Z,9.50
2018-10-07T14:19:15.032Z,7.50
2018-10-07T14:20:18.826Z,19.90
2018-10-07T14:21:22.344Z,12.47
2018-10-07T14:22:25.893Z,6.73
2018-10-07T14:23:29.368Z,7.33
2018-10-07T14:24:32.822Z,6.90
2018-10-07T14:25:36.259Z,6.63
2018-10-07T14:26:39.682Z,6.00
2018-10-07T14:27:43.122Z,6.47
2018-10-07T14:28:46.643Z,9.60
2018-10-07T14:29:51.966Z,7.30
2018-10-07T14:30:55.675Z,8.50